createdAt,value
2022-11-03T00:02:04.020Z,7.03
2022-11-03T00:04:31.849Z,7.55
2022-11-03T00:06:59.447Z,6.93
2022-11-03T00:09:28.224Z,7.28
2022-11-03T00:11:55.843Z,6.53
2022-11-03T00:14:23.623Z,6.97
2022-11-03T00:16:51.213Z,5.70
2022-11-03T00:19:18.857Z,5.28
2022-11-03T00:21:47.210Z,5.15
2022-11-03T00:24:14.828Z,5.32
2022-11-03T00:26:42.602Z,4.53
2022-11-03T00:29:12.649Z,4.40
2022-11-03T00:31:42.571Z,4.90
2022-11-03T00:34:11.160Z,4.97
2022-11-03T00:36:41.457Z,5.32
2022-11-03T00:39:09.814Z,4.60
2022-11-03T00:41:38.054Z,4.55
2022-11-03T00:44:05.891Z,5.50
2022-11-03T00:46:36.275Z,4.87
2022-11-03T00:49:07.122Z,4.40
2022-11-03T00:51:37.870Z,5.15
2022-11-03T00:54:06.604Z,4.78
2022-11-03T00:56:37.220Z,5.03
2022-11-03T00:59:06.673Z,4.60
2022-11-03T01:01:43.904Z,4.35
2022-11-03T01:04:32.067Z,5.55
2022-11-03T01:07:00.944Z,4.97
2022-11-03T01:09:32.576Z,5.55
2022-11-03T01:12:08.205Z,5.85
2022-11-03T01:14:48.024Z,5.25
2022-11-03T01:17:24.399Z,6.78
2022-11-03T01:19:52.353Z,6.45
2022-11-03T01:22:20.885Z,6.20
2022-11-03T01:24:49.127Z,6.70
2022-11-03T01:27:19.215Z,7.45
2022-11-03T01:29:47.161Z,8.05
2022-11-03T01:32:15.181Z,7.00
2022-11-03T01:34:42.840Z,9.70
2022-11-03T01:37:10.524Z,7.57
2022-11-03T01:39:38.168Z,8.00
2022-11-03T01:42:06.050Z,7.43
2022-11-03T01:44:38.659Z,8.85
2022-11-03T01:47:28.126Z,7.47
2022-11-03T01:50:03.675Z,7.95
2022-11-03T01:52:46.020Z,9.05
2022-11-03T01:55:38.564Z,8.65
2022-11-03T01:58:21.104Z,7.97
2022-11-03T02:00:52.183Z,7.75
2022-11-03T02:03:20.635Z,9.02
2022-11-03T02:05:51.002Z,8.63
2022-11-03T02:08:27.077Z,8.48
2022-11-03T02:10:54.909Z,9.43
2022-11-03T02:13:25.352Z,7.30
2022-11-03T02:15:59.782Z,8.50
2022-11-03T02:18:32.402Z,7.47
2022-11-03T02:21:25.882Z,7.47
2022-11-03T02:24:06.229Z,8.35
2022-11-03T02:26:34.030Z,7.28
2022-11-03T02:29:01.669Z,7.97
2022-11-03T02:31:35.104Z,9.77
2022-11-03T02:34:13.169Z,7.55
2022-11-03T02:37:12.811Z,8.07
2022-11-03T02:39:47.977Z,8.48
2022-11-03T02:42:18.816Z,8.20
2022-11-03T02:44:51.893Z,8.50
2022-11-03T02:47:20.983Z,8.35
2022-11-03T02:49:50.957Z,8.82
2022-11-03T02:52:39.835Z,8.77
2022-11-03T02:55:21.731Z,7.87
2022-11-03T02:58:05.618Z,7.40
2022-11-03T03:00:40.922Z,6.80
2022-11-03T03:03:39.927Z,7.55
2022-11-03T03:06:14.858Z,7.47
2022-11-03T03:08:48.105Z,7.20
2022-11-03T03:11:15.885Z,7.55
2022-11-03T03:13:45.648Z,8.13
2022-11-03T03:16:21.020Z,8.10
2022-11-03T03:19:00.741Z,7.40
2022-11-03T03:21:34.756Z,8.13
2022-11-03T03:24:08.724Z,8.80
2022-11-03T03:26:42.549Z,8.02
2022-11-03T03:29:21.722Z,8.23
2022-11-03T03:31:56.782Z,8.93
2022-11-03T03:34:36.019Z,8.32
2022-11-03T03:37:06.242Z,8.13
2022-11-03T03:39:38.865Z,7.70
2022-11-03T03:42:11.400Z,7.62
2022-11-03T03:44:41.688Z,7.37
2022-11-03T03:47:19.261Z,8.27
2022-11-03T03:49:47.101Z,8.15
2022-11-03T03:52:16.033Z,8.82
2022-11-03T03:54:43.635Z,8.23
2022-11-03T03:57:18.294Z,7.25
2022-11-03T03:59:46.086Z,7.40
2022-11-03T04:02:14.237Z,8.13
2022-11-03T04:04:42.235Z,8.85
2022-11-03T04:07:28.932Z,7.85
2022-11-03T04:09:56.579Z,8.60
2022-11-03T04:12:43.063Z,8.40
2022-11-03T04:15:33.053Z,7.87
2022-11-03T04:18:19.142Z,7.40
2022-11-03T04:21:05.249Z,7.15
2022-11-03T04:23:32.823Z,9.00
2022-11-03T04:26:00.531Z,9.18
2022-11-03T04:28:28.472Z,9.07
2022-11-03T04:31:00.667Z,7.97
2022-11-03T04:33:30.761Z,8.82
2022-11-03T04:36:00.708Z,9.70
2022-11-03T04:38:30.423Z,9.20
2022-11-03T04:40:59.645Z,8.93
2022-11-03T04:43:39.684Z,8.90
2022-11-03T04:46:12.348Z,8.55
2022-11-03T04:48:40.080Z,8.68
2022-11-03T04:51:31.076Z,8.25
2022-11-03T04:54:25.017Z,8.43
2022-11-03T04:56:52.839Z,8.30
2022-11-03T04:59:20.483Z,8.15
2022-11-03T05:01:48.356Z,7.90
2022-11-03T05:04:18.950Z,8.10
2022-11-03T05:06:54.280Z,7.97
2022-11-03T05:09:30.025Z,7.82
2022-11-03T05:11:57.844Z,8.55
2022-11-03T05:14:33.302Z,8.50
2022-11-03T05:17:03.244Z,10.07
2022-11-03T05:19:37.563Z,9.38
2022-11-03T05:22:06.513Z,7.93
2022-11-03T05:24:36.810Z,8.00
2022-11-03T05:27:04.536Z,8.73
2022-11-03T05:29:37.598Z,9.52
2022-11-03T05:32:16.067Z,9.45
2022-11-03T05:34:46.644Z,8.82
2022-11-03T05:37:34.689Z,10.10
2022-11-03T05:40:15.936Z,8.82
2022-11-03T05:42:47.651Z,10.77
2022-11-03T05:45:20.961Z,10.55
2022-11-03T05:47:49.945Z,10.32
2022-11-03T05:50:22.337Z,11.05
2022-11-03T05:52:52.466Z,11.57
2022-11-03T05:55:34.275Z,10.73
2022-11-03T05:58:20.565Z,11.02
2022-11-03T06:00:49.003Z,10.80
2022-11-03T06:03:26.215Z,9.20
2022-11-03T06:05:54.672Z,9.27
2022-11-03T06:08:26.586Z,9.32
2022-11-03T06:10:56.503Z,9.85
2022-11-03T06:13:35.240Z,10.05
2022-11-03T06:16:06.912Z,10.32
2022-11-03T06:18:37.621Z,10.27
2022-11-03T06:21:20.198Z,9.10
2022-11-03T06:23:48.076Z,8.70
2022-11-03T06:26:21.036Z,8.75
2022-11-03T06:28:50.227Z,7.65
2022-11-03T06:31:30.514Z,7.72
2022-11-03T06:34:02.479Z,7.15
2022-11-03T06:36:33.383Z,7.20
2022-11-03T06:39:10.683Z,7.87
2022-11-03T06:41:38.752Z,7.20
2022-11-03T06:44:27.092Z,6.53
2022-11-03T06:46:58.079Z,7.00
2022-11-03T06:49:30.475Z,6.55
2022-11-03T06:52:03.295Z,6.82
2022-11-03T06:54:30.914Z,7.43
2022-11-03T06:56:58.616Z,7.82
2022-11-03T06:59:26.292Z,7.90
2022-11-03T07:01:56.718Z,8.55
2022-11-03T07:04:30.862Z,8.60
2022-11-03T07:07:03.715Z,9.63
2022-11-03T07:09:31.317Z,9.90
2022-11-03T07:12:01.814Z,10.15
2022-11-03T07:14:32.352Z,9.27
2022-11-03T07:17:03.490Z,8.25
2022-11-03T07:19:35.572Z,9.60
2022-11-03T07:22:11.468Z,9.32
2022-11-03T07:24:42.461Z,9.90
2022-11-03T07:27:24.842Z,11.00
2022-11-03T07:30:12.908Z,9.55
2022-11-03T07:32:40.656Z,10.80
2022-11-03T07:35:11.260Z,11.23
2022-11-03T07:37:38.917Z,11.25
2022-11-03T07:40:13.172Z,11.23
2022-11-03T07:42:40.782Z,11.77
2022-11-03T07:45:28.306Z,10.90
2022-11-03T07:47:58.247Z,11.18
2022-11-03T07:50:28.101Z,11.25
2022-11-03T07:52:55.710Z,12.30
2022-11-03T07:55:23.324Z,9.77
2022-11-03T07:57:50.939Z,10.55
2022-11-03T08:00:22.967Z,10.35
2022-11-03T08:02:56.822Z,11.35
2022-11-03T08:05:24.618Z,9.57
2022-11-03T08:07:52.308Z,9.98
2022-11-03T08:10:20.039Z,11.07
2022-11-03T08:12:47.653Z,10.20
2022-11-03T08:15:16.951Z,11.25
2022-11-03T08:17:44.667Z,10.70
2022-11-03T08:20:12.754Z,10.85
2022-11-03T08:22:46.052Z,9.95
2022-11-03T08:25:17.400Z,9.98
2022-11-03T08:27:45.041Z,10.60
2022-11-03T08:30:13.177Z,9.65
2022-11-03T08:32:40.807Z,10.93
2022-11-03T08:35:08.810Z,9.25
2022-11-03T08:37:36.451Z,9.80
2022-11-03T08:40:05.574Z,9.65
2022-11-03T08:42:33.221Z,9.57
2022-11-03T08:45:00.887Z,11.23
2022-11-03T08:47:28.506Z,9.80
2022-11-03T08:49:56.183Z,10.23
2022-11-03T08:52:23.852Z,9.13
2022-11-03T08:54:51.530Z,9.48
2022-11-03T08:57:19.253Z,10.88
2022-11-03T08:59:46.866Z,10.88
2022-11-03T09:02:14.735Z,11.05
2022-11-03T09:04:42.389Z,11.48
2022-11-03T09:07:10.005Z,10.32
2022-11-03T09:12:25.229Z,9.35
2022-11-03T09:14:52.832Z,9.20
2022-11-03T09:17:20.487Z,8.70
2022-11-03T09:19:48.093Z,8.88
2022-11-03T09:22:15.720Z,8.38
2022-11-03T09:24:43.595Z,9.70
2022-11-03T09:27:11.763Z,9.10
2022-11-03T09:30:06.498Z,8.60
2022-11-03T09:32:27.189Z,8.90
2022-11-03T09:34:54.849Z,9.23
2022-11-03T09:37:24.014Z,8.25
2022-11-03T09:39:51.647Z,9.52
2022-11-03T09:42:20.062Z,8.88
2022-11-03T09:44:50.253Z,8.30
2022-11-03T09:47:28.134Z,9.95
2022-11-03T09:49:56.132Z,8.82
2022-11-03T09:52:25.333Z,8.68
2022-11-03T09:54:57.864Z,8.77
2022-11-03T09:57:28.459Z,9.23
2022-11-03T09:59:56.770Z,7.87
2022-11-03T10:02:30.924Z,8.68
2022-11-03T10:05:06.969Z,8.75
2022-11-03T10:07:37.833Z,8.60
2022-11-03T10:10:06.192Z,8.90
2022-11-03T10:12:38.112Z,8.02
2022-11-03T10:15:06.916Z,8.18
2022-11-03T10:17:34.779Z,7.87
2022-11-03T10:20:03.714Z,7.40
2022-11-03T10:22:31.412Z,9.18
2022-11-03T10:25:26.715Z,7.75
2022-11-03T10:28:10.375Z,7.85
2022-11-03T10:31:12.964Z,7.82
2022-11-03T10:33:51.413Z,6.87
2022-11-03T10:36:19.138Z,7.45
2022-11-03T10:38:47.348Z,8.02
2022-11-03T10:41:26.763Z,7.50
2022-11-03T10:44:02.765Z,7.07
2022-11-03T10:47:00.376Z,6.80
2022-11-03T10:49:21.103Z,7.28
2022-11-03T10:51:52.774Z,6.72
2022-11-03T10:54:24.073Z,7.65
2022-11-03T10:56:53.418Z,6.93
2022-11-03T10:59:23.801Z,7.15
2022-11-03T11:01:51.753Z,7.87
2022-11-03T11:04:22.012Z,7.32
2022-11-03T11:06:50.435Z,8.05
2022-11-03T11:09:29.184Z,8.75
2022-11-03T11:12:07.936Z,8.10
2022-11-03T11:14:39.191Z,8.27
2022-11-03T11:17:07.604Z,7.32
2022-11-03T11:20:23.232Z,7.55
2022-11-03T11:22:51.845Z,7.45
2022-11-03T11:25:20.215Z,8.02
2022-11-03T11:27:47.756Z,7.60
2022-11-03T11:30:21.111Z,7.43
2022-11-03T11:32:59.406Z,8.02
2022-11-03T11:35:27.336Z,8.10
2022-11-03T11:37:55.460Z,7.65
2022-11-03T11:40:25.791Z,6.90
2022-11-03T11:43:02.473Z,7.87
2022-11-03T11:46:07.401Z,7.60
2022-11-03T11:48:35.561Z,7.12
2022-11-03T11:51:04.867Z,7.53
2022-11-03T11:53:39.071Z,7.55
2022-11-03T11:56:10.339Z,7.20
2022-11-03T11:58:51.364Z,7.60
2022-11-03T12:01:35.637Z,8.20
2022-11-03T12:04:08.231Z,8.02
2022-11-03T12:06:40.876Z,7.57
2022-11-03T12:09:14.662Z,7.20
2022-11-03T12:11:48.283Z,8.02
2022-11-03T12:14:32.459Z,7.30
2022-11-03T12:17:18.363Z,7.85
2022-11-03T12:19:48.517Z,7.78
2022-11-03T12:22:24.943Z,8.40
2022-11-03T12:25:03.138Z,8.32
2022-11-03T12:27:30.734Z,8.95
2022-11-03T12:30:00.600Z,8.55
2022-11-03T12:32:35.877Z,8.57
2022-11-03T12:35:09.372Z,8.02
2022-11-03T12:37:39.240Z,8.45
2022-11-03T12:40:07.643Z,8.63
2022-11-03T12:42:36.189Z,8.57
2022-11-03T12:45:03.999Z,8.18
2022-11-03T12:47:31.665Z,8.05
2022-11-03T12:49:59.273Z,9.57
2022-11-03T12:52:26.939Z,8.45
2022-11-03T12:54:54.640Z,9.07
2022-11-03T12:57:22.277Z,9.00
2022-11-03T12:59:49.969Z,9.55
2022-11-03T13:02:18.189Z,9.25
2022-11-03T13:04:45.966Z,9.25
2022-11-03T13:07:13.607Z,9.27
2022-11-03T13:09:41.265Z,9.43
2022-11-03T13:12:32.138Z,9.90
2022-11-03T13:15:01.708Z,9.98
2022-11-03T13:17:40.289Z,9.45
2022-11-03T13:20:15.573Z,9.70
2022-11-03T13:22:43.267Z,8.90
2022-11-03T13:25:11.025Z,9.80
2022-11-03T13:27:38.754Z,9.13
2022-11-03T13:30:08.662Z,9.40
2022-11-03T13:32:37.109Z,9.38
2022-11-03T13:35:09.504Z,9.88
2022-11-03T13:37:41.102Z,9.38
2022-11-03T13:40:12.923Z,10.27
2022-11-03T13:42:51.545Z,9.00
2022-11-03T13:45:19.192Z,10.38
2022-11-03T13:50:34.553Z,10.02
2022-11-03T13:55:50.444Z,9.88
2022-11-03T14:01:06.250Z,9.88
2022-11-03T14:06:21.524Z,10.50
2022-11-03T14:08:49.146Z,9.82
2022-11-03T14:11:35.302Z,9.57
2022-11-03T14:14:02.928Z,10.60
2022-11-03T14:16:30.828Z,11.48
2022-11-03T14:18:58.524Z,9.60
2022-11-03T14:21:26.137Z,10.05
2022-11-03T14:23:53.764Z,9.80
2022-11-03T14:26:32.822Z,9.98
2022-11-03T14:29:07.792Z,10.20
2022-11-03T14:31:35.550Z,10.25
2022-11-03T14:34:03.354Z,10.02
2022-11-03T14:36:30.984Z,9.90
2022-11-03T14:38:58.636Z,10.40
2022-11-03T14:44:13.185Z,9.82
2022-11-03T14:46:40.844Z,10.13
2022-11-03T14:51:37.255Z,10.25
2022-11-03T14:54:05.032Z,10.65
2022-11-03T14:56:32.623Z,9.82
2022-11-03T14:59:00.348Z,10.35
2022-11-03T15:01:28.199Z,10.30
2022-11-03T15:03:55.908Z,10.80
2022-11-03T15:06:23.577Z,10.50
2022-11-03T15:08:56.197Z,9.45
2022-11-03T15:11:24.405Z,10.40
2022-11-03T15:13:52.815Z,11.07
2022-11-03T15:16:20.593Z,10.70
2022-11-03T15:18:48.503Z,9.82
2022-11-03T15:21:16.394Z,11.05
2022-11-03T15:26:31.769Z,11.10
2022-11-03T15:28:59.578Z,11.80
2022-11-03T15:31:27.248Z,10.68
2022-11-03T15:33:54.926Z,11.15
2022-11-03T15:36:23.278Z,10.93
2022-11-03T15:38:50.904Z,10.43
2022-11-03T15:41:18.663Z,10.50
2022-11-03T15:43:51.544Z,11.68
2022-11-03T15:46:20.379Z,10.60
2022-11-03T15:48:49.774Z,9.35
2022-11-03T15:51:17.458Z,10.00
2022-11-03T15:53:45.078Z,10.70
2022-11-03T15:56:12.815Z,10.20
2022-11-03T15:58:40.690Z,10.50
2022-11-03T16:01:08.468Z,10.27
2022-11-03T16:03:36.147Z,10.23
2022-11-03T16:06:03.740Z,10.32
2022-11-03T16:08:31.337Z,10.13
2022-11-03T16:10:58.971Z,10.30
2022-11-03T16:13:26.751Z,9.90
2022-11-03T16:15:55.617Z,9.52
2022-11-03T16:18:23.312Z,10.57
2022-11-03T16:20:51.033Z,10.45
2022-11-03T16:23:18.703Z,10.30
2022-11-03T16:25:46.326Z,10.00
2022-11-03T16:28:14.047Z,10.27
2022-11-03T16:30:41.712Z,9.85
2022-11-03T16:33:09.800Z,10.95
2022-11-03T16:35:37.429Z,9.35
2022-11-03T16:38:05.452Z,10.40
2022-11-03T16:40:33.366Z,10.75
2022-11-03T16:43:01.022Z,10.63
2022-11-03T16:45:33.632Z,11.05
2022-11-03T16:48:05.672Z,10.15
2022-11-03T16:50:34.073Z,11.20
2022-11-03T16:53:01.889Z,11.25
2022-11-03T16:55:29.678Z,11.85
2022-11-03T16:57:57.447Z,10.93
2022-11-03T17:00:25.386Z,11.07
2022-11-03T17:02:53.345Z,9.93
2022-11-03T17:05:22.204Z,12.23
2022-11-03T17:07:53.960Z,10.80
2022-11-03T17:10:23.065Z,11.27
2022-11-03T17:12:51.446Z,10.45
2022-11-03T17:15:19.264Z,11.70
2022-11-03T17:17:46.937Z,11.02
2022-11-03T17:20:14.581Z,11.25
2022-11-03T17:22:42.270Z,12.80
2022-11-03T17:25:11.865Z,12.27
2022-11-03T17:27:53.362Z,12.43
2022-11-03T17:30:23.737Z,12.77
2022-11-03T17:32:54.321Z,12.75
2022-11-03T17:35:26.678Z,13.48
2022-11-03T17:37:54.687Z,13.30
2022-11-03T17:40:26.074Z,11.82
2022-11-03T17:42:54.161Z,13.60
2022-11-03T17:45:24.054Z,13.00
2022-11-03T17:47:52.230Z,12.77
2022-11-03T17:50:22.784Z,13.68
2022-11-03T17:52:52.272Z,12.80
2022-11-03T17:55:31.470Z,13.43
2022-11-03T17:58:02.643Z,13.98
2022-11-03T18:00:30.817Z,14.73
2022-11-03T18:02:58.716Z,13.98
2022-11-03T18:05:33.760Z,13.60
2022-11-03T18:08:06.748Z,12.63
2022-11-03T18:10:38.814Z,12.98
2022-11-03T18:13:34.375Z,12.75
2022-11-03T18:16:22.471Z,10.82
2022-11-03T18:18:50.046Z,12.75
2022-11-03T18:21:20.181Z,12.73
2022-11-03T18:23:48.027Z,12.93
2022-11-03T18:26:24.385Z,13.48
2022-11-03T18:28:52.337Z,13.07
2022-11-03T18:31:24.011Z,12.57
2022-11-03T18:33:53.023Z,13.15
2022-11-03T18:36:21.569Z,13.15
2022-11-03T18:38:49.832Z,12.18
2022-11-03T18:41:39.784Z,13.85
2022-11-03T18:44:10.148Z,13.70
2022-11-03T18:46:37.751Z,13.18
2022-11-03T18:49:05.344Z,14.73
2022-11-03T18:51:33.437Z,15.80
2022-11-03T18:54:01.406Z,16.00
2022-11-03T18:56:32.795Z,14.02
2022-11-03T18:59:03.637Z,13.93
2022-11-03T19:01:31.365Z,14.75
2022-11-03T19:03:59.209Z,14.02
2022-11-03T19:06:26.956Z,15.15
2022-11-03T19:09:00.596Z,15.32
2022-11-03T19:11:28.528Z,14.75
2022-11-03T19:13:56.261Z,14.20
2022-11-03T19:16:25.443Z,15.57
2022-11-03T19:18:53.526Z,14.18
2022-11-03T19:21:24.606Z,15.82
2022-11-03T19:23:58.117Z,14.30
2022-11-03T19:26:36.528Z,14.63
2022-11-03T19:29:10.134Z,14.57
2022-11-03T19:31:42.444Z,15.25
2022-11-03T19:34:17.411Z,14.32
2022-11-03T19:36:46.039Z,14.45
2022-11-03T19:39:22.207Z,14.87
2022-11-03T19:42:08.574Z,14.38
2022-11-03T19:44:36.343Z,13.43
2022-11-03T19:47:04.972Z,13.85
2022-11-03T19:49:32.777Z,15.95
2022-11-03T19:52:00.594Z,15.02
2022-11-03T19:54:28.260Z,16.62
2022-11-03T19:56:55.904Z,16.40
2022-11-03T19:59:23.611Z,15.07
2022-11-03T20:01:51.355Z,15.65
2022-11-03T20:04:19.139Z,14.00
2022-11-03T20:06:46.808Z,15.50
2022-11-03T20:09:20.024Z,15.55
2022-11-03T20:11:47.783Z,15.80
2022-11-03T20:14:21.925Z,15.15
2022-11-03T20:16:49.553Z,14.27
2022-11-03T20:19:17.223Z,15.52
2022-11-03T20:21:45.110Z,15.40
2022-11-03T20:24:17.424Z,16.70
2022-11-03T20:26:45.077Z,16.67
2022-11-03T20:29:15.035Z,15.60
2022-11-03T20:31:44.315Z,16.62
2022-11-03T20:34:16.460Z,16.05
2022-11-03T20:36:44.814Z,14.98
2022-11-03T20:39:17.134Z,13.68
2022-11-03T20:41:49.296Z,14.85
2022-11-03T20:44:17.185Z,15.70
2022-11-03T20:46:45.028Z,15.13
2022-11-03T20:49:12.808Z,15.18
2022-11-03T20:51:47.009Z,15.45
2022-11-03T20:54:14.528Z,14.05
2022-11-03T20:56:42.582Z,14.57
2022-11-03T20:59:25.538Z,13.07
2022-11-03T21:01:53.945Z,12.70
2022-11-03T21:04:22.221Z,12.82
2022-11-03T21:06:50.232Z,13.20
2022-11-03T21:09:19.486Z,12.88
2022-11-03T21:11:48.770Z,12.75
2022-11-03T21:14:25.715Z,13.15
2022-11-03T21:17:11.803Z,11.95
2022-11-03T21:19:58.323Z,12.27
2022-11-03T21:25:24.162Z,9.88
2022-11-03T21:27:52.819Z,9.10
2022-11-03T21:30:20.715Z,7.43
2022-11-03T21:32:50.127Z,8.20
2022-11-03T21:35:21.337Z,8.63
2022-11-03T21:37:49.220Z,8.50
2022-11-03T21:40:19.089Z,7.72
2022-11-03T21:43:05.392Z,8.52
2022-11-03T21:45:33.357Z,9.32
2022-11-03T21:48:20.768Z,8.32
2022-11-03T21:50:48.690Z,8.57
2022-11-03T21:53:16.388Z,8.43
2022-11-03T21:55:44.233Z,7.87
2022-11-03T21:58:11.917Z,8.27
2022-11-03T22:00:39.536Z,7.75
2022-11-03T22:03:07.411Z,7.25
2022-11-03T22:05:35.387Z,6.55
2022-11-03T22:08:03.122Z,5.20
2022-11-03T22:10:30.726Z,6.20
2022-11-03T22:12:58.369Z,5.00
2022-11-03T22:15:44.574Z,3.58
2022-11-03T22:18:12.736Z,3.10
2022-11-03T22:20:59.137Z,3.08
2022-11-03T22:23:45.727Z,2.78
2022-11-03T22:26:35.560Z,2.50
2022-11-03T22:29:21.986Z,2.62
2022-11-03T22:31:49.668Z,2.17
2022-11-03T22:34:35.795Z,2.35
2022-11-03T22:37:03.461Z,2.30
2022-11-03T22:39:49.602Z,2.28
2022-11-03T22:42:36.042Z,2.55
2022-11-03T22:45:22.276Z,1.95
2022-11-03T22:47:49.948Z,2.12
2022-11-03T22:50:17.644Z,2.33
2022-11-03T22:52:45.350Z,1.70
2022-11-03T22:55:12.958Z,1.80
2022-11-03T22:57:40.659Z,1.90
2022-11-03T23:00:08.985Z,1.60
2022-11-03T23:02:36.650Z,1.90
2022-11-03T23:05:04.511Z,1.55
2022-11-03T23:07:35.843Z,1.23
2022-11-03T23:10:06.500Z,1.33
2022-11-03T23:12:34.235Z,1.00
2022-11-03T23:15:20.256Z,1.10
2022-11-03T23:18:06.396Z,1.23
2022-11-03T23:20:52.601Z,1.00
2022-11-03T23:23:38.781Z,1.10
2022-11-03T23:26:09.539Z,1.23
2022-11-03T23:28:37.427Z,0.88
2022-11-03T23:31:05.173Z,0.90
2022-11-03T23:33:33.154Z,0.98
2022-11-03T23:36:17.137Z,0.80
2022-11-03T23:38:45.593Z,0.77
2022-11-03T23:41:18.708Z,0.77
2022-11-03T23:43:47.659Z,1.00
2022-11-03T23:46:36.378Z,0.75
2022-11-03T23:49:04.584Z,0.75
2022-11-03T23:51:33.468Z,0.70
2022-11-03T23:54:02.086Z,0.70
2022-11-03T23:56:50.245Z,0.70
2022-11-03T23:59:18.422Z,0.68
